الصفحة الرئيسية
METAR-TAF:

METAR-TAF

مطار :

مطار كلميم

كلميم, المغرب

دائرة عرض: 29-01-00N, خط طول: 10-04-04W, ارتفاع: 301 متر

مراقبة الطقس الحالي

تاريخ ووقت الإصدار 1ساعة و 12 دقيقة قبل الساعة 13:00UTC
ريح 13 عقدة من الشمال الغربي
درجة الحرارة 17°درجة مئوية
الرطوبة 63%
ضغط 1016 hPa
الرؤية 10 كم أو أكثر
غيوم قليلة على ارتفاع 1500 قدم
غيوم مفككة على ارتفاع 1600 قدم

METAR: GMAG 061300Z 31013KT 9999 FEW015 BKN016 17/10 Q1016 NOSIG

زمن: 15:12 (14:12 UTC)

توقعات

تاريخ ووقت الإصدار 3ساعات و 12 دقيقة قبل الساعة 11:00UTC
التوقعات صالحة من06 الساعة 12 UTC إلى 07 الساعة 18 UTC
ريح 10 عقدة من الغرب/الشمال الغربي
الرؤية 10 كم أو أكثر
غيوم قليلة على ارتفاع 1500 قدم
غيوم مفككة على ارتفاع 1600 قدم

TAF: GMAG 061100Z 0612/0718 30010KT 9999 FEW015 BKN016

أرصاد الطقس والتوقعات من أكثر من 4000 مطار (تقارير الطقس للمطار METAR والتنبؤ بالطقس بالمطارTAF).

المحطات المتاحة هي النقط الصفراء والحمراء على الخريطة.

حرك المؤشر فوق النقطة لمعرفة اسم المحطة.

ثم انقر لمعرفة أرصاد وتوقعات الطقس.

لتغيير الخارطة: اضغط على الأزرار الخضراء مع رمز الصليب الأسود للتكبير. على الزر الأخضر مع شرطة للتصغير، أو على الأسهم الخضراء للخرائط المجاورة.


METAR-TAF: